Crew | Aerofun Virtual



 METAR AND TAF INFORMATION
METAR FOR LEPP
ADDS - METARS form results

(0520 UTC 20 May 2019)
Data provider http://aviationweather.gov/metar/data/
 
METAR text: LEPP 200500Z 17002KT 9999 BKN035 05/04 Q1014
Conditions at: LEPP (PAMPLONA/NOAIN , ES) observed 0500 UTC 20 May 2019
Temperature: 5.0°C (41°F)
Dewpoint: 4.0°C (39°F) [RH = 93%]
Pressure (altimeter): 29.94 inches Hg (1014.0 mb)
Winds: from the S (170 degrees) at 2 MPH (2 knots; 1.0 m/s)
Visibility: 6 or more miles (10+ km)
Ceiling: 3500 feet AGL
Clouds: broken clouds at 3500 feet AGL
Weather: no significant weather observed at this time

METAR text: LEPP 200430Z VRB01KT 9999 BKN032 05/04 Q1014
Conditions at: LEPP (PAMPLONA/NOAIN , ES) observed 0430 UTC 20 May 2019
Temperature: 5.0°C (41°F)
Dewpoint: 4.0°C (39°F) [RH = 93%]
Pressure (altimeter): 29.94 inches Hg (1014.0 mb)
Winds: variable direction winds at 1 MPH (1 knots; 0.5 m/s)
Visibility: 6 or more miles (10+ km)
Ceiling: 3200 feet AGL
Clouds: broken clouds at 3200 feet AGL
Weather: no significant weather observed at this time

Forecast for: LEPP (PAMPLONA/NOAIN , ES)
Text: TAF LEPP 200200Z 2003/2103 35008KT 9999 SCT010 BKN030 TX14/2013Z TN06/2005Z
Forecast period: 0300 UTC 20 May 2019 to 0300 UTC 21 May 2019
Forecast type: FROM: standard forecast or significant change
Winds: from the N (350 degrees) at 9 MPH (8 knots; 4.1 m/s)
Visibility: 6 or more miles 10+ km)
Ceiling: 3000 feet AGL
Clouds: scattered clouds at 1000 feet AGL
broken clouds at 3000 feet AGL
Weather: no significant weather forecast for this period
Text: PROB40 2003/2007 3000 BR BKN010
Forecast period: 0300 to 0700 UTC 20 May 2019
Forecast type: PROBABLE: 40 percent likelihood of the following during this time
Visibility: 1.86 miles (2.99 km)
Ceiling: 1000 feet AGL
Clouds: broken clouds at 1000 feet AGL
Weather: BR  (mist)
Text: PROB30
Forecast period: 0300 to 0800 UTC 20 May 2019
Forecast type: TEMPORARY: The following changes expected for less than half the time period
Visibility: 0.93 miles (1.50 km)
Ceiling: 500 feet AGL
Clouds: broken clouds at 500 feet AGL
Weather: BCFG  (patches of fog)

 AIRPORT MAP

 RUNWAY INFORMATION
Runway 15 Runway length 0 ft Runway width 0 ft
Runway elevation 1468 ft Runway displaced threshold 0 ft Runway heading 0
Runway 33 Runway length 0 ft Runway width 0 ft
Runway elevation 1500 ft Runway displaced threshold 0 ft Runway heading 0
Runway 16 Runway length 7241 ft Runway width 148 ft
Runway elevation 1468 ft Runway displaced threshold 0 ft Runway heading 152
Runway 34 Runway length 7241 ft Runway width 148 ft
Runway elevation 1504 ft Runway displaced threshold 984 ft Runway heading 332

 AIRPORT FREQUENCIES
Type APP Name APP Frequency 118.2 MHZ
Type GND Name GND Frequency 121.7 MHZ
Type TWR Name TWR Frequency 118.2 MHZ

 AIRPORT NEAR NAVIGATION AIDS
Type NDB Name Pamplona Frequency 422 KHZ
Type VOR-DME Name Pamplona Frequency 113550 KHZ
Type VOR-DME Name Pamplona Frequency 112300 KHZ